createdAt,value
2023-02-17T05:12:40.230Z,27.77
2023-02-17T05:15:44.967Z,27.02
2023-02-17T05:18:47.694Z,28.42
2023-02-17T05:21:51.540Z,27.42
2023-02-17T05:24:54.330Z,27.55
2023-02-17T05:27:57.225Z,27.30
2023-02-17T05:31:01.062Z,27.27
2023-02-17T05:34:04.239Z,26.83
2023-02-17T05:37:06.835Z,26.87
2023-02-17T05:40:11.103Z,25.67
2023-02-17T05:43:13.698Z,25.17
2023-02-17T05:46:17.596Z,25.73
2023-02-17T05:49:20.205Z,23.73
2023-02-17T05:52:23.295Z,23.73
2023-02-17T05:55:25.854Z,21.98
2023-02-17T05:58:28.760Z,26.77
2023-02-17T06:01:31.459Z,25.80
2023-02-17T06:04:34.303Z,25.10
2023-02-17T06:07:37.001Z,24.40
2023-02-17T06:10:42.172Z,26.30
2023-02-17T06:13:44.749Z,24.02
2023-02-17T06:16:47.727Z,23.92
2023-02-17T06:19:50.511Z,23.62
2023-02-17T06:22:53.356Z,23.45
2023-02-17T06:25:56.279Z,24.92
2023-02-17T06:28:59.194Z,26.73
2023-02-17T06:32:01.922Z,25.77
2023-02-17T06:35:05.032Z,25.80
2023-02-17T06:38:07.928Z,26.58
2023-02-17T06:41:10.874Z,27.65
2023-02-17T06:44:13.428Z,26.17
2023-02-17T06:47:19.223Z,25.12
2023-02-17T06:50:21.970Z,27.05
2023-02-17T06:53:24.844Z,25.70
2023-02-17T06:56:27.480Z,25.77
2023-02-17T06:59:33.117Z,26.85
2023-02-17T07:02:38.814Z,27.65
2023-02-17T07:05:41.951Z,26.37
2023-02-17T07:08:45.089Z,27.00
2023-02-17T07:11:49.442Z,26.58
2023-02-17T07:14:52.350Z,26.90
2023-02-17T07:17:55.374Z,26.42
2023-02-17T07:20:58.417Z,27.52
2023-02-17T07:24:01.508Z,26.40
2023-02-17T07:27:06.172Z,25.62
2023-02-17T07:30:09.615Z,26.58
2023-02-17T07:33:12.191Z,26.12
2023-02-17T07:36:17.214Z,26.48
2023-02-17T07:39:19.853Z,28.08
2023-02-17T07:42:24.358Z,27.85
2023-02-17T07:45:27.862Z,30.37
2023-02-17T07:48:31.518Z,30.30
2023-02-17T07:51:34.521Z,28.20
2023-02-17T07:54:37.482Z,25.85
2023-02-17T07:57:40.263Z,27.60
2023-02-17T08:00:43.375Z,26.70
2023-02-17T08:03:47.813Z,26.37
2023-02-17T08:06:51.402Z,26.37
2023-02-17T08:10:12.927Z,25.75
2023-02-17T08:16:26.926Z,26.48
2023-02-17T08:19:42.870Z,26.80
2023-02-17T08:22:49.993Z,26.40
2023-02-17T08:25:53.056Z,25.95
2023-02-17T08:28:56.565Z,25.05
2023-02-17T08:31:59.218Z,25.25
2023-02-17T08:35:02.248Z,25.48
2023-02-17T08:38:04.955Z,27.02
2023-02-17T08:41:26.748Z,26.60
2023-02-17T08:44:29.476Z,26.48
2023-02-17T08:47:32.409Z,27.15
2023-02-17T08:50:35.220Z,27.52
2023-02-17T08:53:38.134Z,28.23
2023-02-17T08:56:41.931Z,28.70
2023-02-17T08:59:48.125Z,26.98
2023-02-17T09:02:50.895Z,27.83
2023-02-17T09:05:56.211Z,27.05
2023-02-17T09:08:59.799Z,26.35
2023-02-17T09:12:02.754Z,25.00
2023-02-17T09:15:06.287Z,22.98
2023-02-17T09:18:09.589Z,23.58
2023-02-17T09:21:13.702Z,23.77
2023-02-17T09:24:17.549Z,18.98
2023-02-17T09:27:20.605Z,18.35
2023-02-17T09:30:23.879Z,17.02
2023-02-17T09:33:27.242Z,17.73
2023-02-17T09:36:38.388Z,18.52
2023-02-17T09:42:44.064Z,17.55
2023-02-17T09:45:58.993Z,18.35
2023-02-17T09:49:12.655Z,18.00
2023-02-17T09:52:29.592Z,16.48
2023-02-17T09:55:41.340Z,17.08
2023-02-17T09:58:50.470Z,16.92
2023-02-17T10:01:55.622Z,16.40
2023-02-17T10:05:05.788Z,15.93
2023-02-17T10:08:18.257Z,15.32
2023-02-17T10:11:35.790Z,16.15
2023-02-17T10:14:41.287Z,14.98
2023-02-17T10:18:06.164Z,15.18
2023-02-17T10:21:22.109Z,15.10
2023-02-17T10:24:25.953Z,16.60
2023-02-17T10:27:41.590Z,16.23
2023-02-17T10:31:10.290Z,16.27
2023-02-17T10:34:26.348Z,14.95
2023-02-17T10:38:09.273Z,15.52
2023-02-17T10:41:17.680Z,16.15
2023-02-17T10:44:25.027Z,16.50
2023-02-17T10:47:27.877Z,16.50
2023-02-17T10:50:31.372Z,16.45
2023-02-17T10:53:40.780Z,16.58
2023-02-17T10:56:52.922Z,17.48
2023-02-17T10:59:55.818Z,18.83
2023-02-17T11:02:58.945Z,18.92
2023-02-17T11:06:04.985Z,20.25
2023-02-17T11:09:33.457Z,22.02
2023-02-17T11:12:41.459Z,21.98
2023-02-17T11:15:46.559Z,22.10
2023-02-17T11:18:50.196Z,23.95
2023-02-17T11:21:55.225Z,22.13
2023-02-17T11:24:59.876Z,22.73
2023-02-17T11:28:07.434Z,21.70
2023-02-17T11:31:31.765Z,22.05
2023-02-17T11:34:37.678Z,23.65
2023-02-17T11:37:43.414Z,22.52
2023-02-17T11:40:59.397Z,22.65
2023-02-17T11:44:02.033Z,19.92
2023-02-17T11:47:04.799Z,21.65
2023-02-17T11:50:41.987Z,22.62
2023-02-17T11:53:50.719Z,22.65
2023-02-17T11:57:02.538Z,24.65
2023-02-17T12:00:22.151Z,22.05
2023-02-17T12:03:53.371Z,23.80
2023-02-17T12:07:15.311Z,24.05
2023-02-17T12:10:27.391Z,24.67
2023-02-17T12:13:55.598Z,26.58
2023-02-17T12:17:13.918Z,25.83
2023-02-17T12:20:38.106Z,27.92
2023-02-17T12:24:10.110Z,28.62
2023-02-17T12:27:33.114Z,32.17
2023-02-17T12:30:54.981Z,32.85
2023-02-17T12:34:06.684Z,33.20
2023-02-17T12:37:22.798Z,32.38
2023-02-17T12:40:57.518Z,33.70
2023-02-17T12:44:07.067Z,32.75
2023-02-17T12:47:17.713Z,32.60
2023-02-17T12:50:32.931Z,31.67
2023-02-17T12:53:41.326Z,30.55
2023-02-17T12:56:55.066Z,29.70
2023-02-17T13:00:00.562Z,27.75
2023-02-17T13:03:05.048Z,28.20
2023-02-17T13:06:34.297Z,26.62
2023-02-17T13:09:42.652Z,26.12
2023-02-17T13:12:59.702Z,24.37
2023-02-17T13:16:14.216Z,25.48
2023-02-17T13:19:28.443Z,25.02
2023-02-17T13:22:31.836Z,24.63
2023-02-17T13:25:37.750Z,25.12
2023-02-17T13:28:41.727Z,23.77
2023-02-17T13:31:50.801Z,24.17
2023-02-17T13:35:20.751Z,21.92
2023-02-17T13:38:31.553Z,17.87
2023-02-17T13:41:46.886Z,18.73
2023-02-17T13:44:51.370Z,19.33
2023-02-17T13:47:59.313Z,20.05
2023-02-17T13:51:04.164Z,21.77
2023-02-17T13:54:09.280Z,21.48
2023-02-17T13:57:27.974Z,20.80
2023-02-17T14:00:32.268Z,22.25
2023-02-17T14:03:56.487Z,22.40
2023-02-17T14:07:01.079Z,24.27
2023-02-17T14:10:05.187Z,24.08
2023-02-17T14:13:11.124Z,25.08
2023-02-17T14:16:35.806Z,23.60
2023-02-17T14:19:46.656Z,24.20
2023-02-17T14:23:04.222Z,23.60
2023-02-17T14:26:26.067Z,22.98
2023-02-17T14:29:42.536Z,24.05
2023-02-17T14:32:45.325Z,24.48
2023-02-17T14:35:57.525Z,22.90
2023-02-17T14:39:02.732Z,22.55
2023-02-17T14:42:05.867Z,22.75
2023-02-17T14:45:09.016Z,23.50
2023-02-17T14:48:12.009Z,24.33
2023-02-17T14:51:20.937Z,26.52
2023-02-17T14:54:26.851Z,26.92
2023-02-17T14:57:30.226Z,25.12
2023-02-17T15:00:33.212Z,26.48
2023-02-17T15:03:36.410Z,29.83
2023-02-17T15:06:43.488Z,29.75
2023-02-17T15:09:48.112Z,28.48
2023-02-17T15:12:51.621Z,28.73
2023-02-17T15:15:54.489Z,31.65
2023-02-17T15:18:58.225Z,32.00
2023-02-17T15:22:02.279Z,33.97
2023-02-17T15:25:11.976Z,32.92
2023-02-17T15:28:16.738Z,39.50
2023-02-17T15:31:21.358Z,38.28
2023-02-17T15:34:30.823Z,36.30
2023-02-17T15:37:34.414Z,36.40
2023-02-17T15:40:37.159Z,39.63
2023-02-17T15:43:41.013Z,38.05
2023-02-17T15:46:47.423Z,37.15
2023-02-17T15:49:50.441Z,35.17
2023-02-17T15:52:53.039Z,32.00
2023-02-17T15:55:56.998Z,32.13
2023-02-17T15:59:04.744Z,31.92
2023-02-17T16:02:21.111Z,32.25
2023-02-17T16:05:27.308Z,33.05
2023-02-17T16:08:30.098Z,34.17
2023-02-17T16:11:34.266Z,33.28
2023-02-17T16:14:38.123Z,34.72
2023-02-17T16:17:41.659Z,34.35
2023-02-17T16:20:44.281Z,34.05
2023-02-17T16:23:47.128Z,34.20
2023-02-17T16:26:50.079Z,33.97
2023-02-17T16:29:52.972Z,35.22
2023-02-17T16:32:55.904Z,34.45
2023-02-17T16:35:58.861Z,35.35
2023-02-17T16:39:10.439Z,36.10
2023-02-17T16:42:15.370Z,36.33
2023-02-17T16:45:22.082Z,38.03
2023-02-17T16:48:28.035Z,37.63
2023-02-17T16:51:30.856Z,36.40
2023-02-17T16:54:35.694Z,36.65
2023-02-17T16:57:38.542Z,37.63
2023-02-17T17:00:42.090Z,36.55
2023-02-17T17:03:45.132Z,36.75
2023-02-17T17:06:50.743Z,35.03
2023-02-17T17:10:15.170Z,35.35
2023-02-17T17:13:16.999Z,36.22
2023-02-17T17:16:24.751Z,34.42
2023-02-17T17:19:27.674Z,35.85
2023-02-17T17:22:30.451Z,35.28
2023-02-17T17:25:38.549Z,36.83
2023-02-17T17:28:41.434Z,34.45
2023-02-17T17:31:45.333Z,36.10
2023-02-17T17:34:52.021Z,35.40
2023-02-17T17:37:57.389Z,34.13
2023-02-17T17:41:00.254Z,35.47
2023-02-17T17:44:03.382Z,34.22
2023-02-17T17:47:06.151Z,36.47
2023-02-17T17:50:16.844Z,35.00
2023-02-17T17:53:19.734Z,35.50
2023-02-17T17:56:28.919Z,36.08
2023-02-17T17:59:31.979Z,36.72
2023-02-17T18:02:35.585Z,35.28
2023-02-17T18:05:38.936Z,36.13
2023-02-17T18:08:43.866Z,35.55
2023-02-17T18:11:47.250Z,35.97
2023-02-17T18:14:54.258Z,34.75
2023-02-17T18:17:57.545Z,34.33
2023-02-17T18:21:00.526Z,35.35
2023-02-17T18:24:04.199Z,35.42
2023-02-17T18:27:07.218Z,35.17
2023-02-17T18:30:20.420Z,33.80
2023-02-17T18:33:26.108Z,35.00
2023-02-17T18:36:30.332Z,34.40
2023-02-17T18:39:33.820Z,34.38
2023-02-17T18:42:38.407Z,35.80
2023-02-17T18:45:41.849Z,35.35
2023-02-17T18:48:46.129Z,35.47
2023-02-17T18:51:48.921Z,35.75
2023-02-17T18:54:52.389Z,36.38
2023-02-17T18:57:55.954Z,35.95
2023-02-17T19:00:59.117Z,34.63
2023-02-17T19:04:02.253Z,35.00
2023-02-17T19:07:07.002Z,37.42
2023-02-17T19:10:11.515Z,37.40
2023-02-17T19:13:15.134Z,36.88
2023-02-17T19:16:27.202Z,36.22
2023-02-17T19:19:31.936Z,37.15
2023-02-17T19:22:37.911Z,36.92
2023-02-17T19:25:40.928Z,37.45
2023-02-17T19:28:44.218Z,36.55
2023-02-17T19:31:49.378Z,37.75
2023-02-17T19:34:53.411Z,36.42
2023-02-17T19:37:56.715Z,36.20
2023-02-17T19:41:02.343Z,38.55
2023-02-17T19:44:06.858Z,37.38
2023-02-17T19:47:10.610Z,36.10
2023-02-17T19:50:15.135Z,38.20
2023-02-17T19:53:19.226Z,36.38
2023-02-17T19:56:25.647Z,38.90
2023-02-17T19:59:31.715Z,38.08
2023-02-17T20:02:36.694Z,38.30
2023-02-17T20:05:41.270Z,40.40
2023-02-17T20:08:46.404Z,39.85
2023-02-17T20:11:53.382Z,39.25
2023-02-17T20:14:56.647Z,39.83
2023-02-17T20:17:59.946Z,40.12
2023-02-17T20:21:03.928Z,39.72
2023-02-17T20:24:07.259Z,40.53
2023-02-17T20:27:11.014Z,40.08
2023-02-17T20:30:16.859Z,39.55
2023-02-17T20:33:21.445Z,40.55
2023-02-17T20:36:32.783Z,40.85
2023-02-17T20:39:36.818Z,41.10
2023-02-17T20:42:40.607Z,39.88
2023-02-17T20:45:44.892Z,40.75
2023-02-17T20:48:49.015Z,38.83
2023-02-17T20:51:51.844Z,38.28
2023-02-17T20:54:55.110Z,39.63
2023-02-17T20:57:57.834Z,36.65
2023-02-17T21:01:01.044Z,37.13
2023-02-17T21:04:03.857Z,32.10
2023-02-17T21:07:07.808Z,25.70
2023-02-17T21:10:22.624Z,21.15
2023-02-17T21:13:25.767Z,18.90
2023-02-17T21:16:31.126Z,17.62
2023-02-17T21:19:34.672Z,17.45
2023-02-17T21:22:37.544Z,17.58
2023-02-17T21:25:40.641Z,17.50
2023-02-17T21:28:43.701Z,17.73
2023-02-17T21:31:46.892Z,18.15
2023-02-17T21:34:49.510Z,18.08
2023-02-17T21:37:52.659Z,18.80
2023-02-17T21:40:56.100Z,18.08
2023-02-17T21:44:18.622Z,18.85
2023-02-17T21:47:22.441Z,19.30
2023-02-17T21:50:27.246Z,19.45
2023-02-17T21:53:29.987Z,20.00
2023-02-17T21:56:33.633Z,20.98
2023-02-17T21:59:36.869Z,21.55
2023-02-17T22:02:40.339Z,20.73
2023-02-17T22:05:43.158Z,21.90
2023-02-17T22:08:46.915Z,21.45
2023-02-17T22:11:50.044Z,22.13
2023-02-17T22:14:52.760Z,21.20
2023-02-17T22:17:55.625Z,21.77
2023-02-17T22:20:58.408Z,20.98
2023-02-17T22:24:04.149Z,19.98
2023-02-17T22:27:06.832Z,18.67
2023-02-17T22:30:13.605Z,17.52
2023-02-17T22:33:16.809Z,15.60
2023-02-17T22:36:22.653Z,12.50
2023-02-17T22:39:25.374Z,10.90
2023-02-17T22:42:29.037Z,8.90
2023-02-17T22:45:32.007Z,7.97
2023-02-17T22:48:37.629Z,8.05
2023-02-17T22:51:40.999Z,7.80
2023-02-17T22:54:44.381Z,7.60
2023-02-17T22:57:47.886Z,6.80
2023-02-17T23:00:52.205Z,6.15
2023-02-17T23:03:55.783Z,7.15
2023-02-17T23:06:59.113Z,6.62
2023-02-17T23:10:01.833Z,6.87
2023-02-17T23:13:05.844Z,6.12
2023-02-17T23:16:13.755Z,6.35
2023-02-17T23:19:19.568Z,6.10
2023-02-17T23:22:22.278Z,7.15
2023-02-17T23:25:25.675Z,6.80
2023-02-17T23:28:29.717Z,6.47
2023-02-17T23:31:34.206Z,7.20
2023-02-17T23:34:38.791Z,6.85
2023-02-17T23:37:43.552Z,6.70
2023-02-17T23:40:51.482Z,6.68
2023-02-17T23:43:55.196Z,6.50
2023-02-17T23:46:57.781Z,5.28
2023-02-17T23:50:00.886Z,5.47
2023-02-17T23:53:05.458Z,5.12
2023-02-17T23:56:22.148Z,4.30
2023-02-17T23:59:24.622Z,4.40
